PWSweather.com
Personal Weather Stations
Station Observations
728536
Kristiansand, FlekkeroyNO 4625

KristiansandFlekkeroyNO 4625

Lat: 58.0860587, Lon: 8.0151742

Elevation: 36

Station Type: Davis Vantage Pro2

http://www.paulen.no

Latest ConditionsUpdated 8:40:01 AM GMT+01:01 Thursday, Jul 18, 2019
Currently Today's Max Today's Min Today's Average
Temperature 58.1°F14.5°C 58.1°F14.5°C 57.1°F13.9°C 57.7°F14.3°C
Dew Point 54.9°F12.7°C 55.3°F12.9°C 54.2°F12.3°C 54.7°F12.6°C
Winds 6.9 mph SSE11.1 kmh SSE 6.9 mph -11.1 kmh - - 3.5 mph 5.6 kmh
Wind Gusts 8.1 mph13.0 kmh 9.2 mph14.8 kmh - -
Humidity 89% 92% 87% 90%
Pressure 29.87 in1011.5 mb 29.88 in1011.9 mb 29.86 in1011.2 mb -
Hour Temp Dew Point Humidity Winds Wind Gusts Pressure Precip Precip Rate Daily Precip Total
08:40 AM 58.1°F14.5°C 54.9°F12.7°C 89% 6.9 mph SSE11.1 kmh SSE 8.1 mph13.0 kmh 29.87 in1011.5 mb - 0.00 in0.0 mm 0.00 in0.0 mm
08:30 AM 58.0°F14.4°C 54.8°F12.7°C 89% 4.6 mph N7.4 kmh N 6.9 mph11.1 kmh 29.87 in1011.5 mb - 0.00 in0.0 mm 0.00 in0.0 mm
08:20 AM 58.0°F14.4°C 55.1°F12.8°C 90% 5.8 mph N9.3 kmh N 9.2 mph14.8 kmh 29.87 in1011.5 mb - 0.00 in0.0 mm 0.00 in0.0 mm
08:10 AM 57.9°F14.4°C 54.7°F12.6°C 89% 5.8 mph N9.3 kmh N 6.9 mph11.1 kmh 29.86 in1011.2 mb - 0.00 in0.0 mm 0.00 in0.0 mm
08:00 AM 58.0°F14.4°C 54.7°F12.6°C 89% 2.3 mph N3.7 kmh N 4.6 mph7.4 kmh 29.86 in1011.2 mb - 0.00 in0.0 mm 0.00 in0.0 mm
07:50 AM 57.9°F14.4°C 54.7°F12.6°C 89% 3.5 mph N5.6 kmh N 3.5 mph5.6 kmh 29.87 in1011.5 mb - 0.00 in0.0 mm 0.00 in0.0 mm
07:40 AM 57.9°F14.4°C 54.7°F12.6°C 89% 6.9 mph N11.1 kmh N 6.9 mph11.1 kmh 29.87 in1011.5 mb - 0.00 in0.0 mm 0.00 in0.0 mm
07:30 AM 57.8°F14.3°C 54.9°F12.7°C 90% 3.5 mph N5.6 kmh N 5.8 mph9.3 kmh 29.86 in1011.2 mb - 0.00 in0.0 mm 0.00 in0.0 mm
07:20 AM 57.7°F14.3°C 54.7°F12.6°C 90% 3.5 mph N5.6 kmh N 6.9 mph11.1 kmh 29.86 in1011.2 mb - 0.00 in0.0 mm 0.00 in0.0 mm
07:10 AM 57.6°F14.2°C 55.0°F12.8°C 91% 4.6 mph N7.4 kmh N 6.9 mph11.1 kmh 29.86 in1011.2 mb - 0.00 in0.0 mm 0.00 in0.0 mm
07:00 AM 57.6°F14.2°C 55.3°F12.9°C 92% 3.5 mph N5.6 kmh N 3.5 mph5.6 kmh 29.86 in1011.2 mb - 0.00 in0.0 mm 0.00 in0.0 mm
06:50 AM 57.6°F14.2°C 55.0°F12.8°C 91% 5.8 mph N9.3 kmh N 6.9 mph11.1 kmh 29.86 in1011.2 mb - 0.00 in0.0 mm 0.00 in0.0 mm
06:40 AM 57.4°F14.1°C 55.1°F12.8°C 92% 3.5 mph N5.6 kmh N 4.6 mph7.4 kmh 29.86 in1011.2 mb - 0.00 in0.0 mm 0.00 in0.0 mm
06:30 AM 57.2°F14.0°C 54.9°F12.7°C 92% 3.5 mph N5.6 kmh N 6.9 mph11.1 kmh 29.86 in1011.2 mb - 0.00 in0.0 mm 0.00 in0.0 mm
06:20 AM 57.1°F13.9°C 54.8°F12.7°C 92% 4.6 mph N7.4 kmh N 5.8 mph9.3 kmh 29.86 in1011.2 mb - 0.00 in0.0 mm 0.00 in0.0 mm
06:10 AM 57.2°F14.0°C 54.9°F12.7°C 92% 2.3 mph N3.7 kmh N 3.5 mph5.6 kmh 29.86 in1011.2 mb - 0.00 in0.0 mm 0.00 in0.0 mm
06:00 AM 57.2°F14.0°C 54.6°F12.6°C 91% 3.5 mph N5.6 kmh N 6.9 mph11.1 kmh 29.86 in1011.2 mb - 0.00 in0.0 mm 0.00 in0.0 mm
05:50 AM 57.2°F14.0°C 54.6°F12.6°C 91% 4.6 mph N7.4 kmh N 6.9 mph11.1 kmh 29.86 in1011.2 mb - 0.00 in0.0 mm 0.00 in0.0 mm
05:40 AM 57.4°F14.1°C 54.8°F12.7°C 91% 4.6 mph N7.4 kmh N 6.9 mph11.1 kmh 29.86 in1011.2 mb - 0.00 in0.0 mm 0.00 in0.0 mm
05:30 AM 57.5°F14.2°C 54.6°F12.6°C 90% 2.3 mph N3.7 kmh N 3.5 mph5.6 kmh 29.86 in1011.2 mb - 0.00 in0.0 mm 0.00 in0.0 mm
05:20 AM 57.6°F14.2°C 54.7°F12.6°C 90% 3.5 mph N5.6 kmh N 3.5 mph5.6 kmh 29.86 in1011.2 mb - 0.00 in0.0 mm 0.00 in0.0 mm
05:10 AM 57.6°F14.2°C 55.0°F12.8°C 91% 4.6 mph N7.4 kmh N 6.9 mph11.1 kmh 29.86 in1011.2 mb - 0.00 in0.0 mm 0.00 in0.0 mm
05:00 AM 57.6°F14.2°C 55.0°F12.8°C 91% 4.6 mph N7.4 kmh N 3.5 mph5.6 kmh 29.86 in1011.2 mb - 0.00 in0.0 mm 0.00 in0.0 mm
04:50 AM 57.5°F14.2°C 54.9°F12.7°C 91% 3.5 mph NNW5.6 kmh NNW 4.6 mph7.4 kmh 29.86 in1011.2 mb - 0.00 in0.0 mm 0.00 in0.0 mm
04:40 AM 57.5°F14.2°C 54.9°F12.7°C 91% 2.3 mph WSW3.7 kmh WSW 1.2 mph1.9 kmh 29.86 in1011.2 mb - 0.00 in0.0 mm 0.00 in0.0 mm
04:30 AM 57.5°F14.2°C 54.9°F12.7°C 91% 1.2 mph WNW1.9 kmh WNW 3.5 mph5.6 kmh 29.86 in1011.2 mb - 0.00 in0.0 mm 0.00 in0.0 mm
04:20 AM 57.4°F14.1°C 54.8°F12.7°C 91% Calm Calm 2.3 mph3.7 kmh 29.86 in1011.2 mb - 0.00 in0.0 mm 0.00 in0.0 mm
04:10 AM 57.3°F14.1°C 54.7°F12.6°C 91% 1.2 mph N1.9 kmh N 2.3 mph3.7 kmh 29.86 in1011.2 mb - 0.00 in0.0 mm 0.00 in0.0 mm
04:00 AM 57.2°F14.0°C 54.6°F12.6°C 91% Calm Calm 1.2 mph1.9 kmh 29.86 in1011.2 mb - 0.00 in0.0 mm 0.00 in0.0 mm
03:50 AM 57.1°F13.9°C 54.2°F12.3°C 90% 4.6 mph N7.4 kmh N 5.8 mph9.3 kmh 29.86 in1011.2 mb - 0.00 in0.0 mm 0.00 in0.0 mm
03:40 AM 57.1°F13.9°C 54.2°F12.3°C 90% 4.6 mph N7.4 kmh N 5.8 mph9.3 kmh 29.86 in1011.2 mb - 0.00 in0.0 mm 0.00 in0.0 mm
03:30 AM 57.4°F14.1°C 54.5°F12.5°C 90% 2.3 mph N3.7 kmh N 4.6 mph7.4 kmh 29.86 in1011.2 mb - 0.00 in0.0 mm 0.00 in0.0 mm
03:20 AM 57.6°F14.2°C 54.7°F12.6°C 90% 3.5 mph WNW5.6 kmh WNW 5.8 mph9.3 kmh 29.86 in1011.2 mb - 0.00 in0.0 mm 0.00 in0.0 mm
03:10 AM 57.7°F14.3°C 54.8°F12.7°C 90% 2.3 mph NW3.7 kmh NW 4.6 mph7.4 kmh 29.86 in1011.2 mb - 0.00 in0.0 mm 0.00 in0.0 mm
03:00 AM 57.7°F14.3°C 54.8°F12.7°C 90% 1.2 mph NNW1.9 kmh NNW 4.6 mph7.4 kmh 29.87 in1011.5 mb - 0.00 in0.0 mm 0.00 in0.0 mm
02:50 AM 57.7°F14.3°C 54.5°F12.5°C 89% 3.5 mph N5.6 kmh N 3.5 mph5.6 kmh 29.87 in1011.5 mb - 0.00 in0.0 mm 0.00 in0.0 mm
02:40 AM 57.7°F14.3°C 54.5°F12.5°C 89% 3.5 mph WNW5.6 kmh WNW 5.8 mph9.3 kmh 29.87 in1011.5 mb - 0.00 in0.0 mm 0.00 in0.0 mm
02:30 AM 57.7°F14.3°C 54.5°F12.5°C 89% 4.6 mph W7.4 kmh W 8.1 mph13.0 kmh 29.87 in1011.5 mb - 0.00 in0.0 mm 0.00 in0.0 mm
02:20 AM 57.8°F14.3°C 54.3°F12.4°C 88% 3.5 mph N5.6 kmh N 8.1 mph13.0 kmh 29.87 in1011.5 mb - 0.00 in0.0 mm 0.00 in0.0 mm
02:10 AM 57.9°F14.4°C 54.4°F12.4°C 88% 5.8 mph N9.3 kmh N 6.9 mph11.1 kmh 29.88 in1011.9 mb - 0.00 in0.0 mm 0.00 in0.0 mm
02:00 AM 58.0°F14.4°C 54.2°F12.3°C 87% 2.3 mph WNW3.7 kmh WNW 9.2 mph14.8 kmh 29.88 in1011.9 mb - 0.00 in0.0 mm 0.00 in0.0 mm
01:50 AM 58.1°F14.5°C 54.2°F12.3°C 87% 4.6 mph N7.4 kmh N 9.2 mph14.8 kmh 29.87 in1011.5 mb - 0.00 in0.0 mm 0.00 in0.0 mm
01:40 AM 58.1°F14.5°C 54.2°F12.3°C 87% 3.5 mph N5.6 kmh N 6.9 mph11.1 kmh 29.88 in1011.9 mb - 0.00 in0.0 mm 0.00 in0.0 mm
01:30 AM 58.1°F14.5°C 54.6°F12.6°C 88% 2.3 mph W3.7 kmh W 5.8 mph9.3 kmh 29.88 in1011.9 mb - 0.00 in0.0 mm 0.00 in0.0 mm
01:20 AM 58.1°F14.5°C 54.6°F12.6°C 88% 2.3 mph NNW3.7 kmh NNW 5.8 mph9.3 kmh 29.88 in1011.9 mb - 0.00 in0.0 mm 0.00 in0.0 mm
01:10 AM 58.0°F14.4°C 54.5°F12.5°C 88% 1.2 mph N1.9 kmh N 6.9 mph11.1 kmh 29.88 in1011.9 mb - 0.00 in0.0 mm 0.00 in0.0 mm
01:00 AM 58.0°F14.4°C 54.5°F12.5°C 88% 5.8 mph NW9.3 kmh NW 5.8 mph9.3 kmh 29.88 in1011.9 mb - 0.00 in0.0 mm 0.00 in0.0 mm
12:50 AM 58.0°F14.4°C 54.8°F12.7°C 89% 2.3 mph N3.7 kmh N 4.6 mph7.4 kmh 29.88 in1011.9 mb - 0.00 in0.0 mm 0.00 in0.0 mm
12:40 AM 58.0°F14.4°C 54.8°F12.7°C 89% 3.5 mph N5.6 kmh N 3.5 mph5.6 kmh 29.88 in1011.9 mb - 0.00 in0.0 mm 0.00 in0.0 mm
12:30 AM 58.0°F14.4°C 55.0°F12.8°C 90% 4.6 mph W7.4 kmh W 9.2 mph14.8 kmh 29.88 in1011.9 mb - 0.00 in0.0 mm 0.00 in0.0 mm
12:20 AM 57.9°F14.4°C 55.0°F12.8°C 90% 1.2 mph N1.9 kmh N 3.5 mph5.6 kmh 29.88 in1011.9 mb - 0.00 in0.0 mm 0.00 in0.0 mm
12:10 AM 57.7°F14.3°C 54.8°F12.7°C 90% 3.5 mph WNW5.6 kmh WNW 3.5 mph5.6 kmh 29.88 in1011.9 mb - 0.00 in0.0 mm 0.00 in0.0 mm
12:00 AM 57.5°F14.2°C 54.6°F12.6°C 90% 1.2 mph WNW1.9 kmh WNW 8.1 mph13.0 kmh 29.88 in1011.9 mb - 0.00 in0.0 mm 0.00 in0.0 mm